sensor_id;sensor_type;location;lat;lon;timestamp;pressure;altitude;pressure_sealevel;temperature;humidity
35224;BME280;21367;51.930;8.112;2023-11-19T00:04:48;100034.44;;;9.07;100.00
35224;BME280;21367;51.930;8.112;2023-11-19T00:09:54;100033.69;;;9.09;100.00
35224;BME280;21367;51.930;8.112;2023-11-19T00:14:58;100034.56;;;9.10;100.00
35224;BME280;21367;51.930;8.112;2023-11-19T00:20:02;100022.19;;;9.22;100.00
35224;BME280;21367;51.930;8.112;2023-11-19T00:25:09;100009.72;;;9.33;100.00
35224;BME280;21367;51.930;8.112;2023-11-19T00:30:15;99997.88;;;9.36;100.00
35224;BME280;21367;51.930;8.112;2023-11-19T00:35:19;99996.25;;;9.38;100.00
35224;BME280;21367;51.930;8.112;2023-11-19T00:40:25;99999.69;;;9.39;100.00
35224;BME280;21367;51.930;8.112;2023-11-19T00:45:29;99975.03;;;9.42;100.00
35224;BME280;21367;51.930;8.112;2023-11-19T00:50:32;99968.31;;;9.46;100.00
35224;BME280;21367;51.930;8.112;2023-11-19T00:55:39;99958.34;;;9.55;100.00
35224;BME280;21367;51.930;8.112;2023-11-19T01:00:42;99926.66;;;9.53;100.00
35224;BME280;21367;51.930;8.112;2023-11-19T01:05:46;99915.72;;;9.59;100.00
35224;BME280;21367;51.930;8.112;2023-11-19T01:10:52;99915.25;;;9.70;100.00
35224;BME280;21367;51.930;8.112;2023-11-19T01:15:56;99909.50;;;9.78;100.00
35224;BME280;21367;51.930;8.112;2023-11-19T01:21:00;99910.31;;;9.77;100.00
35224;BME280;21367;51.930;8.112;2023-11-19T01:26:08;99894.28;;;9.84;100.00
35224;BME280;21367;51.930;8.112;2023-11-19T01:31:15;99907.28;;;9.88;100.00
35224;BME280;21367;51.930;8.112;2023-11-19T01:36:18;99891.16;;;9.92;100.00
35224;BME280;21367;51.930;8.112;2023-11-19T01:41:25;99868.34;;;10.02;100.00
35224;BME280;21367;51.930;8.112;2023-11-19T01:46:28;99849.69;;;10.07;100.00
35224;BME280;21367;51.930;8.112;2023-11-19T01:51:33;99852.09;;;10.03;100.00
35224;BME280;21367;51.930;8.112;2023-11-19T01:56:40;99833.63;;;10.14;100.00
35224;BME280;21367;51.930;8.112;2023-11-19T02:01:54;99833.63;;;10.14;100.00
35224;BME280;21367;51.930;8.112;2023-11-19T02:07:15;99833.63;;;10.14;100.00
35224;BME280;21367;51.930;8.112;2023-11-19T02:13:20;55207.94;;;-144.78;100.00
35224;BME280;21367;51.930;8.112;2023-11-19T02:18:35;99833.63;;;10.14;100.00
35224;BME280;21367;51.930;8.112;2023-11-19T02:24:37;55207.94;;;-144.78;100.00
35224;BME280;21367;51.930;8.112;2023-11-19T02:30:43;55207.94;;;-144.78;100.00
35224;BME280;21367;51.930;8.112;2023-11-19T02:36:04;99833.63;;;10.14;100.00
35224;BME280;21367;51.930;8.112;2023-11-19T02:42:07;55207.94;;;-144.78;100.00
35224;BME280;21367;51.930;8.112;2023-11-19T02:48:12;55207.94;;;-144.78;100.00
35224;BME280;21367;51.930;8.112;2023-11-19T02:54:16;55207.94;;;-144.78;100.00
35224;BME280;21367;51.930;8.112;2023-11-19T03:00:19;55207.94;;;-144.78;100.00
35224;BME280;21367;51.930;8.112;2023-11-19T03:06:25;55207.94;;;-144.78;100.00
35224;BME280;21367;51.930;8.112;2023-11-19T03:12:27;55207.94;;;-144.78;100.00
35224;BME280;21367;51.930;8.112;2023-11-19T03:18:29;55207.94;;;-144.78;100.00
35224;BME280;21367;51.930;8.112;2023-11-19T03:24:35;55207.94;;;-144.78;100.00
35224;BME280;21367;51.930;8.112;2023-11-19T03:30:38;55207.94;;;-144.78;100.00
35224;BME280;21367;51.930;8.112;2023-11-19T03:36:40;55207.94;;;-144.78;100.00
35224;BME280;21367;51.930;8.112;2023-11-19T03:42:46;55207.94;;;-144.78;100.00
35224;BME280;21367;51.930;8.112;2023-11-19T03:48:49;55207.94;;;-144.78;100.00
35224;BME280;21367;51.930;8.112;2023-11-19T03:54:51;55207.94;;;-144.78;100.00
35224;BME280;21367;51.930;8.112;2023-11-19T04:00:57;55207.94;;;-144.78;100.00
35224;BME280;21367;51.930;8.112;2023-11-19T04:07:00;55207.94;;;-144.78;100.00
35224;BME280;21367;51.930;8.112;2023-11-19T04:13:03;55207.94;;;-144.78;100.00
35224;BME280;21367;51.930;8.112;2023-11-19T04:19:07;55207.94;;;-144.78;100.00
35224;BME280;21367;51.930;8.112;2023-11-19T04:25:10;55207.94;;;-144.78;100.00
35224;BME280;21367;51.930;8.112;2023-11-19T04:31:14;55207.94;;;-144.78;100.00
35224;BME280;21367;51.930;8.112;2023-11-19T04:37:19;55207.94;;;-144.78;100.00
35224;BME280;21367;51.930;8.112;2023-11-19T04:43:21;55207.94;;;-144.78;100.00
35224;BME280;21367;51.930;8.112;2023-11-19T04:48:33;71715.72;;;10.14;100.00
35224;BME280;21367;51.930;8.112;2023-11-19T04:53:40;55207.94;;;-144.78;100.00
35224;BME280;21367;51.930;8.112;2023-11-19T04:58:43;55207.94;;;-144.78;100.00
35224;BME280;21367;51.930;8.112;2023-11-19T05:04:45;55207.94;;;-144.78;100.00
35224;BME280;21367;51.930;8.112;2023-11-19T05:10:50;55207.94;;;-144.78;100.00
35224;BME280;21367;51.930;8.112;2023-11-19T05:16:53;55207.94;;;-144.78;100.00
35224;BME280;21367;51.930;8.112;2023-11-19T05:22:50;55207.94;;;-144.78;100.00
35224;BME280;21367;51.930;8.112;2023-11-19T05:28:55;55207.94;;;-144.78;100.00
35224;BME280;21367;51.930;8.112;2023-11-19T05:34:57;55207.94;;;-144.78;100.00
35224;BME280;21367;51.930;8.112;2023-11-19T05:40:59;55207.94;;;-144.78;100.00
35224;BME280;21367;51.930;8.112;2023-11-19T05:46:53;75886.06;;;-144.78;100.00
35224;BME280;21367;51.930;8.112;2023-11-19T05:52:55;55207.94;;;-144.78;100.00
35224;BME280;21367;51.930;8.112;2023-11-19T05:58:57;55207.94;;;-144.78;100.00
35224;BME280;21367;51.930;8.112;2023-11-19T06:05:03;55207.94;;;-144.78;100.00
35224;BME280;21367;51.930;8.112;2023-11-19T06:11:06;55207.94;;;-144.78;100.00
35224;BME280;21367;51.930;8.112;2023-11-19T06:17:11;55207.94;;;-144.78;100.00
35224;BME280;21367;51.930;8.112;2023-11-19T06:23:19;55207.94;;;-144.78;100.00
35224;BME280;21367;51.930;8.112;2023-11-19T06:29:21;55207.94;;;-144.78;100.00
35224;BME280;21367;51.930;8.112;2023-11-19T06:34:42;99833.63;;;10.14;100.00
35224;BME280;21367;51.930;8.112;2023-11-19T06:40:47;55207.94;;;-144.78;100.00
35224;BME280;21367;51.930;8.112;2023-11-19T06:46:50;55207.94;;;-144.78;100.00
35224;BME280;21367;51.930;8.112;2023-11-19T06:52:53;55207.94;;;-144.78;100.00
35224;BME280;21367;51.930;8.112;2023-11-19T06:58:58;55207.94;;;-144.78;100.00
35224;BME280;21367;51.930;8.112;2023-11-19T07:05:00;55207.94;;;-144.78;100.00
35224;BME280;21367;51.930;8.112;2023-11-19T07:11:04;55207.94;;;-144.78;100.00
35224;BME280;21367;51.930;8.112;2023-11-19T07:17:12;55207.94;;;-144.78;100.00
35224;BME280;21367;51.930;8.112;2023-11-19T07:23:14;55207.94;;;-144.78;100.00
35224;BME280;21367;51.930;8.112;2023-11-19T07:29:16;55207.94;;;-144.78;100.00
35224;BME280;21367;51.930;8.112;2023-11-19T07:35:21;55207.94;;;-144.78;100.00
35224;BME280;21367;51.930;8.112;2023-11-19T07:41:24;55207.94;;;-144.78;100.00
35224;BME280;21367;51.930;8.112;2023-11-19T07:47:26;55207.94;;;-144.78;100.00
35224;BME280;21367;51.930;8.112;2023-11-19T07:53:31;55207.94;;;-144.78;100.00
35224;BME280;21367;51.930;8.112;2023-11-19T07:59:34;55207.94;;;-144.78;100.00
35224;BME280;21367;51.930;8.112;2023-11-19T08:05:36;55207.94;;;-144.78;100.00
35224;BME280;21367;51.930;8.112;2023-11-19T08:11:41;55207.94;;;-144.78;100.00
35224;BME280;21367;51.930;8.112;2023-11-19T08:17:43;55207.94;;;-144.78;100.00
35224;BME280;21367;51.930;8.112;2023-11-19T08:23:19;55207.94;;;-144.78;100.00
35224;BME280;21367;51.930;8.112;2023-11-19T08:28:26;55207.94;;;-144.78;100.00
35224;BME280;21367;51.930;8.112;2023-11-19T08:33:32;55207.94;;;-144.78;100.00
35224;BME280;21367;51.930;8.112;2023-11-19T08:38:36;55207.94;;;-144.78;100.00
35224;BME280;21367;51.930;8.112;2023-11-19T08:43:42;55207.94;;;-144.78;100.00
35224;BME280;21367;51.930;8.112;2023-11-19T08:48:46;55207.94;;;-144.78;100.00
35224;BME280;21367;51.930;8.112;2023-11-19T08:53:50;55207.94;;;-144.78;100.00
35224;BME280;21367;51.930;8.112;2023-11-19T08:58:57;55207.94;;;-144.78;100.00
35224;BME280;21367;51.930;8.112;2023-11-19T09:04:01;55207.94;;;-144.78;100.00
35224;BME280;21367;51.930;8.112;2023-11-19T09:09:05;55207.94;;;-144.78;100.00
35224;BME280;21367;51.930;8.112;2023-11-19T09:14:11;55207.94;;;-144.78;100.00
35224;BME280;21367;51.930;8.112;2023-11-19T09:19:15;55207.94;;;-144.78;100.00
35224;BME280;21367;51.930;8.112;2023-11-19T09:24:18;55207.94;;;-144.78;100.00
35224;BME280;21367;51.930;8.112;2023-11-19T09:29:24;55207.94;;;-144.78;100.00
35224;BME280;21367;51.930;8.112;2023-11-19T09:34:28;55207.94;;;-144.78;100.00
35224;BME280;21367;51.930;8.112;2023-11-19T09:39:32;55207.94;;;-144.78;100.00
35224;BME280;21367;51.930;8.112;2023-11-19T09:44:38;55207.94;;;-144.78;100.00
35224;BME280;21367;51.930;8.112;2023-11-19T09:49:42;55207.94;;;-144.78;100.00
35224;BME280;21367;51.930;8.112;2023-11-19T09:54:46;55207.94;;;-144.78;100.00
35224;BME280;21367;51.930;8.112;2023-11-19T09:59:53;55207.94;;;-144.78;100.00
35224;BME280;21367;51.930;8.112;2023-11-19T10:04:59;55207.94;;;-144.78;100.00
35224;BME280;21367;51.930;8.112;2023-11-19T10:10:05;55207.94;;;-144.78;100.00
35224;BME280;21367;51.930;8.112;2023-11-19T10:15:20;55207.94;;;-144.78;100.00
35224;BME280;21367;51.930;8.112;2023-11-19T10:21:22;55207.94;;;-144.78;100.00
35224;BME280;21367;51.930;8.112;2023-11-19T10:27:26;55207.94;;;-144.78;100.00
35224;BME280;21367;51.930;8.112;2023-11-19T10:32:33;100224.16;;;12.07;100.00
35224;BME280;21367;51.930;8.112;2023-11-19T10:37:37;100222.97;;;12.27;100.00
35224;BME280;21367;51.930;8.112;2023-11-19T10:42:41;100210.06;;;12.59;100.00
35224;BME280;21367;51.930;8.112;2023-11-19T10:47:48;100217.47;;;12.45;100.00
35224;BME280;21367;51.930;8.112;2023-11-19T10:53:54;55207.94;;;-144.78;100.00
35224;BME280;21367;51.930;8.112;2023-11-19T11:00:01;55207.94;;;-144.78;100.00
35224;BME280;21367;51.930;8.112;2023-11-19T11:05:43;100217.47;;;12.45;100.00
35224;BME280;21367;51.930;8.112;2023-11-19T11:10:52;100214.38;;;12.27;100.00
35224;BME280;21367;51.930;8.112;2023-11-19T11:16:00;100210.53;;;12.11;100.00
35224;BME280;21367;51.930;8.112;2023-11-19T11:21:12;100206.81;;;12.01;100.00
35224;BME280;21367;51.930;8.112;2023-11-19T11:26:39;100197.56;;;12.08;100.00
35224;BME280;21367;51.930;8.112;2023-11-19T11:31:54;100206.53;;;12.22;100.00
35224;BME280;21367;51.930;8.112;2023-11-19T11:37:11;100202.09;;;12.17;100.00
35224;BME280;21367;51.930;8.112;2023-11-19T11:42:34;100194.81;;;12.02;100.00
35224;BME280;21367;51.930;8.112;2023-11-19T11:53:25;100206.78;;;12.32;100.00
35224;BME280;21367;51.930;8.112;2023-11-19T11:58:31;100208.06;;;12.47;100.00
35224;BME280;21367;51.930;8.112;2023-11-19T12:03:37;100203.28;;;12.63;100.00
35224;BME280;21367;51.930;8.112;2023-11-19T12:08:44;100187.47;;;12.49;100.00
35224;BME280;21367;51.930;8.112;2023-11-19T12:13:54;100186.88;;;12.59;100.00
35224;BME280;21367;51.930;8.112;2023-11-19T12:19:03;100182.31;;;12.82;100.00
35224;BME280;21367;51.930;8.112;2023-11-19T12:24:11;100175.13;;;12.36;100.00
35224;BME280;21367;51.930;8.112;2023-11-19T12:29:16;100175.13;;;12.36;100.00
35224;BME280;21367;51.930;8.112;2023-11-19T12:34:19;100160.22;;;12.59;100.00
35224;BME280;21367;51.930;8.112;2023-11-19T12:39:29;100158.97;;;12.43;100.00
35224;BME280;21367;51.930;8.112;2023-11-19T12:44:33;100150.28;;;12.74;100.00
35224;BME280;21367;51.930;8.112;2023-11-19T12:49:36;100145.63;;;12.59;100.00
35224;BME280;21367;51.930;8.112;2023-11-19T12:54:43;100146.06;;;13.14;98.00
35224;BME280;21367;51.930;8.112;2023-11-19T12:59:56;100149.81;;;12.90;99.57
35224;BME280;21367;51.930;8.112;2023-11-19T13:05:20;100145.00;;;13.06;100.00
35224;BME280;21367;51.930;8.112;2023-11-19T13:10:28;100148.34;;;12.64;100.00
35224;BME280;21367;51.930;8.112;2023-11-19T13:15:32;100135.66;;;12.73;100.00
35224;BME280;21367;51.930;8.112;2023-11-19T13:20:36;100125.59;;;12.84;100.00
35224;BME280;21367;51.930;8.112;2023-11-19T13:25:43;100129.72;;;12.77;100.00
35224;BME280;21367;51.930;8.112;2023-11-19T13:30:47;100112.47;;;12.73;100.00
35224;BME280;21367;51.930;8.112;2023-11-19T13:35:50;100113.06;;;12.63;100.00
35224;BME280;21367;51.930;8.112;2023-11-19T13:40:57;100114.59;;;12.55;100.00
35224;BME280;21367;51.930;8.112;2023-11-19T13:46:00;100113.56;;;12.84;99.66
35224;BME280;21367;51.930;8.112;2023-11-19T13:51:05;100114.09;;;13.07;95.97
35224;BME280;21367;51.930;8.112;2023-11-19T13:56:13;100100.28;;;12.67;97.22
35224;BME280;21367;51.930;8.112;2023-11-19T14:01:17;100096.78;;;12.64;98.04
35224;BME280;21367;51.930;8.112;2023-11-19T14:06:20;100099.56;;;12.73;96.74
35224;BME280;21367;51.930;8.112;2023-11-19T14:11:27;100116.25;;;12.53;97.89
35224;BME280;21367;51.930;8.112;2023-11-19T14:16:31;100126.16;;;12.36;98.87
35224;BME280;21367;51.930;8.112;2023-11-19T14:21:35;100110.00;;;12.43;97.71
35224;BME280;21367;51.930;8.112;2023-11-19T14:26:41;100119.91;;;12.27;99.72
35224;BME280;21367;51.930;8.112;2023-11-19T14:31:44;100120.50;;;12.50;100.00
35224;BME280;21367;51.930;8.112;2023-11-19T14:36:48;100110.47;;;12.63;99.34
35224;BME280;21367;51.930;8.112;2023-11-19T14:41:54;100115.78;;;12.34;98.98
35224;BME280;21367;51.930;8.112;2023-11-19T14:46:59;100120.69;;;12.23;100.00
35224;BME280;21367;51.930;8.112;2023-11-19T14:52:03;100119.34;;;12.06;100.00
35224;BME280;21367;51.930;8.112;2023-11-19T14:57:10;100112.38;;;12.00;100.00
35224;BME280;21367;51.930;8.112;2023-11-19T15:02:15;100118.25;;;11.96;100.00
35224;BME280;21367;51.930;8.112;2023-11-19T15:07:18;100116.06;;;11.80;100.00
35224;BME280;21367;51.930;8.112;2023-11-19T15:12:25;100108.06;;;11.71;100.00
35224;BME280;21367;51.930;8.112;2023-11-19T15:17:29;100103.59;;;11.64;100.00
35224;BME280;21367;51.930;8.112;2023-11-19T15:22:32;100100.00;;;11.58;100.00
35224;BME280;21367;51.930;8.112;2023-11-19T15:27:38;100128.41;;;11.62;100.00
35224;BME280;21367;51.930;8.112;2023-11-19T15:32:42;100122.00;;;11.47;100.00
35224;BME280;21367;51.930;8.112;2023-11-19T15:37:46;100112.09;;;11.31;100.00
35224;BME280;21367;51.930;8.112;2023-11-19T15:42:52;100097.19;;;10.91;100.00
35224;BME280;21367;51.930;8.112;2023-11-19T15:47:58;100090.81;;;11.06;100.00
35224;BME280;21367;51.930;8.112;2023-11-19T15:53:01;100080.44;;;11.03;100.00
35224;BME280;21367;51.930;8.112;2023-11-19T15:58:08;100084.72;;;11.04;100.00
35224;BME280;21367;51.930;8.112;2023-11-19T16:03:11;100091.19;;;11.20;100.00
35224;BME280;21367;51.930;8.112;2023-11-19T16:08:15;100075.63;;;10.87;100.00
35224;BME280;21367;51.930;8.112;2023-11-19T16:13:22;100088.56;;;11.19;100.00
35224;BME280;21367;51.930;8.112;2023-11-19T16:18:26;100090.63;;;10.73;100.00
35224;BME280;21367;51.930;8.112;2023-11-19T16:23:29;100085.72;;;10.81;100.00
35224;BME280;21367;51.930;8.112;2023-11-19T16:28:35;100085.28;;;10.94;100.00
35224;BME280;21367;51.930;8.112;2023-11-19T16:33:39;100090.81;;;10.79;100.00
35224;BME280;21367;51.930;8.112;2023-11-19T16:38:42;100104.69;;;10.84;100.00
35224;BME280;21367;51.930;8.112;2023-11-19T16:43:50;100112.84;;;11.00;100.00
35224;BME280;21367;51.930;8.112;2023-11-19T16:48:56;100114.53;;;10.98;100.00
35224;BME280;21367;51.930;8.112;2023-11-19T16:54:00;100125.03;;;11.05;100.00
35224;BME280;21367;51.930;8.112;2023-11-19T16:59:07;100129.47;;;11.09;100.00
35224;BME280;21367;51.930;8.112;2023-11-19T17:04:10;100130.25;;;11.07;100.00
35224;BME280;21367;51.930;8.112;2023-11-19T17:09:14;100133.00;;;11.13;100.00
35224;BME280;21367;51.930;8.112;2023-11-19T17:14:20;100139.50;;;11.02;100.00
35224;BME280;21367;51.930;8.112;2023-11-19T17:19:23;100130.41;;;10.84;100.00
35224;BME280;21367;51.930;8.112;2023-11-19T17:24:27;100123.31;;;10.77;100.00
35224;BME280;21367;51.930;8.112;2023-11-19T17:29:34;100112.84;;;10.71;100.00
35224;BME280;21367;51.930;8.112;2023-11-19T17:34:38;100100.81;;;10.70;100.00
35224;BME280;21367;51.930;8.112;2023-11-19T17:39:42;100099.84;;;10.67;100.00
35224;BME280;21367;51.930;8.112;2023-11-19T17:44:48;100097.38;;;10.70;100.00
35224;BME280;21367;51.930;8.112;2023-11-19T17:49:53;100103.25;;;10.65;100.00
35224;BME280;21367;51.930;8.112;2023-11-19T17:54:57;100092.31;;;10.46;100.00
35224;BME280;21367;51.930;8.112;2023-11-19T18:00:05;100087.03;;;10.68;100.00
35224;BME280;21367;51.930;8.112;2023-11-19T18:05:14;100097.31;;;10.68;100.00
35224;BME280;21367;51.930;8.112;2023-11-19T18:10:18;100106.81;;;10.71;100.00
35224;BME280;21367;51.930;8.112;2023-11-19T18:15:24;100105.13;;;10.71;100.00
35224;BME280;21367;51.930;8.112;2023-11-19T18:20:28;100109.59;;;10.77;100.00
35224;BME280;21367;51.930;8.112;2023-11-19T18:25:32;100104.25;;;10.71;100.00
35224;BME280;21367;51.930;8.112;2023-11-19T18:30:38;100115.00;;;10.59;100.00
35224;BME280;21367;51.930;8.112;2023-11-19T18:35:42;100091.38;;;10.69;100.00
35224;BME280;21367;51.930;8.112;2023-11-19T18:40:46;100086.81;;;10.60;100.00
35224;BME280;21367;51.930;8.112;2023-11-19T18:45:52;100092.16;;;10.68;100.00
35224;BME280;21367;51.930;8.112;2023-11-19T18:50:56;100080.09;;;10.38;100.00
35224;BME280;21367;51.930;8.112;2023-11-19T18:56:01;100066.72;;;10.49;100.00
35224;BME280;21367;51.930;8.112;2023-11-19T19:01:10;100056.91;;;10.37;100.00
35224;BME280;21367;51.930;8.112;2023-11-19T19:06:14;100056.22;;;10.41;100.00
35224;BME280;21367;51.930;8.112;2023-11-19T19:11:18;100040.13;;;10.47;100.00
35224;BME280;21367;51.930;8.112;2023-11-19T19:16:25;100040.84;;;10.42;100.00
35224;BME280;21367;51.930;8.112;2023-11-19T19:21:29;100027.50;;;10.27;100.00
35224;BME280;21367;51.930;8.112;2023-11-19T19:26:33;100011.53;;;10.10;100.00
35224;BME280;21367;51.930;8.112;2023-11-19T19:31:39;99997.63;;;10.04;100.00
35224;BME280;21367;51.930;8.112;2023-11-19T19:36:43;99986.16;;;10.19;100.00
35224;BME280;21367;51.930;8.112;2023-11-19T19:41:47;99976.06;;;10.26;100.00
35224;BME280;21367;51.930;8.112;2023-11-19T19:46:54;99972.28;;;10.14;100.00
35224;BME280;21367;51.930;8.112;2023-11-19T19:51:57;99956.31;;;10.25;100.00
35224;BME280;21367;51.930;8.112;2023-11-19T19:57:01;99962.66;;;10.07;100.00
35224;BME280;21367;51.930;8.112;2023-11-19T20:02:08;99963.03;;;10.19;100.00
35224;BME280;21367;51.930;8.112;2023-11-19T20:07:12;99955.78;;;10.06;100.00
35224;BME280;21367;51.930;8.112;2023-11-19T20:13:14;55207.94;;;-144.78;100.00
35224;BME280;21367;51.930;8.112;2023-11-19T20:19:19;55207.94;;;-144.78;100.00
35224;BME280;21367;51.930;8.112;2023-11-19T20:25:22;55207.94;;;-144.78;100.00
35224;BME280;21367;51.930;8.112;2023-11-19T20:31:24;55207.94;;;-144.78;100.00
35224;BME280;21367;51.930;8.112;2023-11-19T20:37:29;55207.94;;;-144.78;100.00
35224;BME280;21367;51.930;8.112;2023-11-19T20:43:32;55207.94;;;-144.78;100.00
35224;BME280;21367;51.930;8.112;2023-11-19T20:49:34;55207.94;;;-144.78;100.00
35224;BME280;21367;51.930;8.112;2023-11-19T20:55:39;55207.94;;;-144.78;100.00
35224;BME280;21367;51.930;8.112;2023-11-19T21:01:44;55207.94;;;-144.78;100.00
35224;BME280;21367;51.930;8.112;2023-11-19T21:07:46;55207.94;;;-144.78;100.00
35224;BME280;21367;51.930;8.112;2023-11-19T21:13:51;55207.94;;;-144.78;100.00
35224;BME280;21367;51.930;8.112;2023-11-19T21:19:53;55207.94;;;-144.78;100.00
35224;BME280;21367;51.930;8.112;2023-11-19T21:25:55;55207.94;;;-144.78;100.00
35224;BME280;21367;51.930;8.112;2023-11-19T21:32:00;55207.94;;;-144.78;100.00
35224;BME280;21367;51.930;8.112;2023-11-19T21:38:02;55207.94;;;-144.78;100.00
35224;BME280;21367;51.930;8.112;2023-11-19T21:44:04;55207.94;;;-144.78;100.00
35224;BME280;21367;51.930;8.112;2023-11-19T21:50:09;55207.94;;;-144.78;100.00
35224;BME280;21367;51.930;8.112;2023-11-19T21:56:11;55207.94;;;-144.78;100.00
35224;BME280;21367;51.930;8.112;2023-11-19T22:02:16;55207.94;;;-144.78;100.00
35224;BME280;21367;51.930;8.112;2023-11-19T22:08:21;55207.94;;;-144.78;100.00
35224;BME280;21367;51.930;8.112;2023-11-19T22:14:23;55207.94;;;-144.78;100.00
35224;BME280;21367;51.930;8.112;2023-11-19T22:20:25;55207.94;;;-144.78;100.00
35224;BME280;21367;51.930;8.112;2023-11-19T22:26:30;55207.94;;;-144.78;100.00
35224;BME280;21367;51.930;8.112;2023-11-19T22:32:32;55207.94;;;-144.78;100.00
35224;BME280;21367;51.930;8.112;2023-11-19T22:38:34;55207.94;;;-144.78;100.00
35224;BME280;21367;51.930;8.112;2023-11-19T22:44:39;55207.94;;;-144.78;100.00
35224;BME280;21367;51.930;8.112;2023-11-19T22:50:41;55207.94;;;-144.78;100.00
35224;BME280;21367;51.930;8.112;2023-11-19T22:56:44;55207.94;;;-144.78;100.00
35224;BME280;21367;51.930;8.112;2023-11-19T23:02:49;55207.94;;;-144.78;100.00
35224;BME280;21367;51.930;8.112;2023-11-19T23:08:51;55207.94;;;-144.78;100.00
35224;BME280;21367;51.930;8.112;2023-11-19T23:14:54;55207.94;;;-144.78;100.00
35224;BME280;21367;51.930;8.112;2023-11-19T23:21:01;55207.94;;;-144.78;100.00
35224;BME280;21367;51.930;8.112;2023-11-19T23:27:04;55207.94;;;-144.78;100.00
35224;BME280;21367;51.930;8.112;2023-11-19T23:33:08;55207.94;;;-144.78;100.00
35224;BME280;21367;51.930;8.112;2023-11-19T23:39:13;55207.94;;;-144.78;100.00
35224;BME280;21367;51.930;8.112;2023-11-19T23:45:16;55207.94;;;-144.78;100.00
35224;BME280;21367;51.930;8.112;2023-11-19T23:51:19;55207.94;;;-144.78;100.00
35224;BME280;21367;51.930;8.112;2023-11-19T23:57:24;55207.94;;;-144.78;100.00
